< < Back
Terminal Aerodrome Forecast


Current Version              Previous Versions:   1  2  3  4  5  6  7  8  9  

Terminal Aerodrome Forecast

031
FTUS42 KFFC 252207 AAB
TAFCSG
TAF AMD
KCSG 252207Z 2522/2618 23009G20KT P6SM SKC
     FM260000 22009KT P6SM SCT250
     FM260300 23006KT P6SM OVC050
     FM260800 26005KT P6SM OVC015
     FM261500 30012G20KT P6SM BKN030=

Latest METAR

681
SAUS70 KWBC 260200
MTRCSG
METAR KCSG 260151Z AUTO 21005KT 10SM CLR 11/02 A2978 RMK AO2 SLP085
T01060022


USA.gov is the U.S. government's official web portal to all federal, state and local government web resources and services.